Time;durP1;ratioP1;P1;durP2;ratioP2;P2;SDS_P1;SDS_P2;PMS_P1;PMS_P2;Temp;Humidity;BMP_temperature;BMP_pressure;BME280_temperature;BME280_humidity;BME280_pressure;Samples;Min_cycle;Max_cycle;Signal;HPM_P1;HPM_P2
2022/07/13 00:01:42;;;;;;;4.05;1.67;;;;;;;18.51;50.39;101546.31;7396689;19;20074;-68
2022/07/13 00:04:14;;;;;;;1.73;1.63;;;;;;;18.46;50.33;101533.22;7396679;19;20035;-68
2022/07/13 00:06:42;;;;;;;2.25;1.45;;;;;;;18.42;50.76;101536.94;7397109;19;20043;-68
2022/07/13 00:09:11;;;;;;;2.53;1.48;;;;;;;18.39;50.90;101532.63;7397068;19;20018;-68
2022/07/13 00:11:39;;;;;;;1.83;1.63;;;;;;;18.36;50.76;101531.88;7395221;19;20018;-68
2022/07/13 00:14:08;;;;;;;1.60;1.33;;;;;;;18.33;50.84;101529.38;7398087;19;20024;-68
2022/07/13 00:16:36;;;;;;;2.35;1.60;;;;;;;18.30;50.96;101532.16;7398375;19;20015;-68
2022/07/13 00:19:05;;;;;;;1.63;1.45;;;;;;;18.28;51.12;101523.41;7395668;19;20018;-68
2022/07/13 00:21:36;;;;;;;2.35;1.73;;;;;;;18.26;51.32;101531.44;7396041;19;20010;-68
2022/07/13 00:24:05;;;;;;;2.75;1.80;;;;;;;18.22;51.40;101527.16;7398436;19;20022;-68
2022/07/13 00:26:33;;;;;;;2.10;1.42;;;;;;;18.18;51.45;101523.75;7398206;19;20435;-68
2022/07/13 00:29:02;;;;;;;2.35;1.25;;;;;;;18.17;51.71;101521.16;7398099;19;20485;-68
2022/07/13 00:31:30;;;;;;;3.15;1.63;;;;;;;18.14;51.76;101511.53;7397509;19;20375;-68
2022/07/13 00:33:59;;;;;;;1.95;1.48;;;;;;;18.11;51.65;101510.81;7397858;19;20039;-68
2022/07/13 00:36:27;;;;;;;2.00;1.25;;;;;;;18.09;51.57;101520.63;7396064;19;20394;-68
2022/07/13 00:38:59;;;;;;;2.75;1.23;;;;;;;18.09;51.98;101515.34;7396486;19;20033;-67
2022/07/13 00:41:27;;;;;;;2.67;1.50;;;;;;;18.08;52.07;101506.47;7397249;19;20031;-69
2022/07/13 00:43:56;;;;;;;1.75;1.48;;;;;;;18.08;52.47;101503.81;7397407;19;20423;-68
2022/07/13 00:46:24;;;;;;;3.05;1.30;;;;;;;18.07;52.34;101499.44;7394937;19;20014;-68
2022/07/13 00:48:53;;;;;;;1.42;1.20;;;;;;;18.06;52.42;101500.38;7397047;19;20099;-68
2022/07/13 00:51:21;;;;;;;2.00;1.77;;;;;;;18.06;52.80;101498.59;7395278;19;20022;-68
2022/07/13 00:53:50;;;;;;;2.67;1.35;;;;;;;18.04;52.88;101500.44;7397192;19;20022;-68
2022/07/13 00:56:22;;;;;;;2.40;1.50;;;;;;;18.03;52.77;101489.88;7395022;19;20032;-68
2022/07/13 00:58:50;;;;;;;2.60;1.27;;;;;;;18.02;52.68;101496.09;7396176;19;20366;-67
2022/07/13 01:01:19;;;;;;;2.42;1.30;;;;;;;17.99;52.81;101494.44;7395046;19;20032;-68
2022/07/13 01:03:48;;;;;;;2.22;1.10;;;;;;;18.00;52.88;101495.31;7395093;19;20023;-68
2022/07/13 01:06:17;;;;;;;2.50;1.20;;;;;;;17.98;53.12;101490.06;7394662;19;20561;-67
2022/07/13 01:08:46;;;;;;;2.90;1.50;;;;;;;17.98;53.10;101483.91;7396301;19;20031;-68
2022/07/13 01:11:15;;;;;;;1.58;1.30;;;;;;;17.97;52.95;101476.84;7394346;19;20383;-68
2022/07/13 01:13:47;;;;;;;2.63;1.40;;;;;;;17.95;53.38;101476.91;7395229;19;20010;-67
2022/07/13 01:16:16;;;;;;;3.72;1.58;;;;;;;17.96;53.05;101477.78;7396626;19;20039;-68
2022/07/13 01:18:45;;;;;;;1.80;1.10;;;;;;;17.96;53.15;101472.47;7395301;19;20022;-68
2022/07/13 01:21:15;;;;;;;2.42;1.25;;;;;;;17.94;52.92;101469.88;7394170;19;20070;-68
2022/07/13 01:23:46;;;;;;;2.78;1.35;;;;;;;17.94;53.31;101464.56;7394145;19;20027;-68
2022/07/13 01:26:14;;;;;;;1.38;1.25;;;;;;;17.94;52.94;101461.06;7396422;19;20035;-68
2022/07/13 01:28:43;;;;;;;1.52;1.27;;;;;;;17.94;53.22;101463.72;7394439;19;20081;-68
2022/07/13 01:31:11;;;;;;;1.58;1.40;;;;;;;17.94;53.48;101472.53;7394228;19;20018;-68
2022/07/13 01:33:40;;;;;;;2.75;1.52;;;;;;;17.94;53.60;101475.19;7394335;19;20022;-67
2022/07/13 01:36:15;;;;;;;2.88;1.17;;;;;;;17.94;53.18;101467.22;7393985;19;20031;-68
2022/07/13 01:38:46;;;;;;;2.35;1.40;;;;;;;17.93;53.27;101468.13;7393613;19;20018;-68
2022/07/13 01:41:15;;;;;;;3.30;1.10;;;;;;;17.94;53.15;101469.88;7393568;19;20399;-68
2022/07/13 01:43:45;;;;;;;1.27;1.17;;;;;;;17.94;52.85;101480.50;7394032;19;20018;-68
2022/07/13 01:46:14;;;;;;;1.52;1.30;;;;;;;17.94;53.31;101479.66;7396062;19;20023;-68
2022/07/13 01:48:42;;;;;;;2.45;1.17;;;;;;;17.94;53.15;101477.00;7395076;19;20014;-68
2022/07/13 01:51:11;;;;;;;2.33;1.40;;;;;;;17.95;52.96;101468.09;7393605;19;20018;-68
2022/07/13 01:53:39;;;;;;;1.25;1.10;;;;;;;17.94;53.17;101459.25;7394900;19;20502;-68
2022/07/13 01:56:11;;;;;;;1.30;1.08;;;;;;;17.95;52.99;101457.50;7395250;19;20039;-68
2022/07/13 01:58:39;;;;;;;3.17;1.25;;;;;;;17.95;52.93;101447.72;7394422;19;20477;-68
2022/07/13 02:01:08;;;;;;;2.15;1.27;;;;;;;17.97;52.85;101450.31;7393431;19;20014;-68
2022/07/13 02:03:37;;;;;;;1.27;1.17;;;;;;;17.99;53.01;101445.81;7395000;19;20022;-68
2022/07/13 02:06:06;;;;;;;3.85;1.55;;;;;;;18.01;53.45;101443.97;7394665;19;20419;-68
2022/07/13 02:08:34;;;;;;;2.47;1.48;;;;;;;18.00;53.37;101432.47;7394879;19;20025;-68
2022/07/13 02:11:03;;;;;;;1.75;1.27;;;;;;;18.01;53.53;101434.19;7393325;19;20026;-68
2022/07/13 02:13:34;;;;;;;1.70;1.15;;;;;;;18.01;53.07;101434.19;7394392;19;20019;-68
2022/07/13 02:16:03;;;;;;;4.70;1.60;;;;;;;18.01;53.46;101434.19;7395296;19;20036;-68
2022/07/13 02:18:31;;;;;;;4.82;2.15;;;;;;;18.01;53.59;101436.00;7394302;19;20015;-68
2022/07/13 02:21:06;;;;;;;2.63;1.63;;;;;;;17.99;53.47;101433.38;7392530;19;20040;-68
2022/07/13 02:23:35;;;;;;;2.03;1.45;;;;;;;17.95;53.69;101444.22;7393660;19;20015;-69
2022/07/13 02:26:03;;;;;;;2.10;1.45;;;;;;;17.96;53.77;101438.84;7394294;19;20485;-68
2022/07/13 02:28:34;;;;;;;1.80;1.55;;;;;;;17.96;53.94;101436.19;7393803;19;20035;-68
2022/07/13 02:31:03;;;;;;;5.53;1.58;;;;;;;17.92;53.91;101431.91;7393108;19;20098;-68
2022/07/13 02:33:31;;;;;;;3.70;1.40;;;;;;;17.90;53.92;101425.78;7396153;19;20506;-67
2022/07/13 02:36:00;;;;;;;2.35;1.60;;;;;;;17.88;54.18;101438.25;7400005;19;20031;-68
2022/07/13 02:38:28;;;;;;;2.60;1.38;;;;;;;17.86;54.25;101432.16;7401096;19;20027;-68
2022/07/13 02:40:57;;;;;;;1.60;1.50;;;;;;;17.84;54.01;101437.50;7399142;19;20035;-68
2022/07/13 02:43:25;;;;;;;5.60;1.70;;;;;;;17.82;54.33;101442.03;7401652;19;20074;-68
2022/07/13 02:45:57;;;;;;;2.63;1.50;;;;;;;17.81;54.35;101437.66;7401164;19;20015;-68
2022/07/13 02:48:25;;;;;;;2.17;1.55;;;;;;;17.80;54.46;101424.44;7401505;19;20022;-68
2022/07/13 02:50:54;;;;;;;2.00;1.35;;;;;;;17.78;54.42;101437.78;7399191;19;20018;-68
2022/07/13 02:53:22;;;;;;;2.05;1.60;;;;;;;17.75;54.38;101419.31;7401319;19;20022;-68
2022/07/13 02:55:51;;;;;;;1.45;1.35;;;;;;;17.74;54.45;101425.53;7400927;19;20022;-68
2022/07/13 02:58:19;;;;;;;2.00;1.23;;;;;;;17.71;54.42;101431.84;7398319;19;20032;-68
2022/07/13 03:00:48;;;;;;;6.97;4.32;;;;;;;17.70;54.52;101427.44;7397522;19;20424;-68
2022/07/13 03:03:19;;;;;;;8.90;5.75;;;;;;;17.68;55.06;101431.09;7397384;19;20488;-67
2022/07/13 03:05:47;;;;;;;3.92;2.22;;;;;;;17.66;54.87;101433.81;7401168;19;20035;-68
2022/07/13 03:08:16;;;;;;;2.67;1.25;;;;;;;17.61;54.92;101425.19;7400882;19;20035;-68
2022/07/13 03:10:45;;;;;;;1.63;1.40;;;;;;;17.57;54.99;101424.44;7397614;19;20027;-68
2022/07/13 03:13:14;;;;;;;3.15;1.52;;;;;;;17.55;55.04;101420.13;7400679;19;20022;-67
2022/07/13 03:15:42;;;;;;;1.90;1.60;;;;;;;17.53;55.64;101425.50;7397936;19;20027;-68
2022/07/13 03:18:11;;;;;;;5.03;1.52;;;;;;;17.51;55.51;101431.78;7397785;19;20035;-68
2022/07/13 03:20:42;;;;;;;2.58;1.40;;;;;;;17.49;55.96;101421.25;7397612;19;20022;-68
2022/07/13 03:23:11;;;;;;;2.25;1.63;;;;;;;17.49;55.90;101425.66;7399685;19;20015;-68
2022/07/13 03:25:39;;;;;;;2.83;1.77;;;;;;;17.48;55.92;101427.47;7399801;19;20111;-68
2022/07/13 03:28:08;;;;;;;3.40;1.58;;;;;;;17.47;56.32;101423.09;7397004;19;20040;-68
2022/07/13 03:30:36;;;;;;;3.38;1.50;;;;;;;17.47;56.31;101420.44;7396949;19;20520;-68
2022/07/13 03:33:05;;;;;;;3.58;2.22;;;;;;;17.47;56.42;101428.41;7399391;19;20014;-68
2022/07/13 03:35:34;;;;;;;2.80;1.55;;;;;;;17.44;56.26;101431.19;7396802;19;20039;-67
2022/07/13 03:38:05;;;;;;;2.95;2.47;;;;;;;17.44;56.63;101431.19;7396259;19;20018;-68
2022/07/13 03:40:33;;;;;;;2.97;1.63;;;;;;;17.41;56.65;101424.22;7397565;19;20037;-68
2022/07/13 03:43:02;;;;;;;2.67;1.73;;;;;;;17.37;57.02;101422.59;7396969;19;20026;-68
2022/07/13 03:45:30;;;;;;;2.45;1.80;;;;;;;17.35;56.90;101410.31;7396928;19;20026;-68
2022/07/13 03:47:59;;;;;;;2.47;1.65;;;;;;;17.31;57.01;101406.91;7398914;19;20419;-68
2022/07/13 03:50:27;;;;;;;3.10;1.95;;;;;;;17.30;57.19;101413.16;7396725;19;20026;-68
2022/07/13 03:52:56;;;;;;;3.72;1.90;;;;;;;17.30;57.39;101412.28;7398452;19;20037;-68
2022/07/13 03:55:27;;;;;;;3.95;1.80;;;;;;;17.31;57.44;101417.50;7396595;19;20520;-68
2022/07/13 03:57:56;;;;;;;4.43;1.95;;;;;;;17.31;57.68;101414.00;7398416;19;20010;-68
2022/07/13 04:00:24;;;;;;;3.72;1.80;;;;;;;17.31;57.92;101421.97;7397316;19;20030;-68
2022/07/13 04:02:53;;;;;;;3.80;1.73;;;;;;;17.30;57.68;101417.59;7395922;19;20380;-69
2022/07/13 04:05:21;;;;;;;4.45;1.65;;;;;;;17.29;57.79;101413.19;7398413;19;20024;-67
2022/07/13 04:07:50;;;;;;;2.05;1.85;;;;;;;17.26;57.80;101422.13;7397965;19;20514;-68
2022/07/13 04:10:19;;;;;;;3.92;1.75;;;;;;;17.25;58.06;101425.75;7395687;19;20039;-69
2022/07/13 04:12:52;;;;;;;3.15;1.70;;;;;;;17.22;58.53;101429.34;7398037;19;20070;-68
2022/07/13 04:15:20;;;;;;;1.77;1.50;;;;;;;17.22;58.25;101433.78;7398057;19;20039;-69
2022/07/13 04:17:49;;;;;;;2.72;1.77;;;;;;;17.23;58.35;101430.22;7398194;19;20035;-69
2022/07/13 04:20:17;;;;;;;3.25;2.08;;;;;;;17.24;58.79;101424.00;7395480;19;20022;-69
2022/07/13 04:22:46;;;;;;;2.50;1.80;;;;;;;17.25;58.72;101412.47;7395841;19;20035;-69
2022/07/13 04:25:14;;;;;;;2.55;1.63;;;;;;;17.26;58.58;101409.75;7398007;19;20014;-69
2022/07/13 04:27:43;;;;;;;3.00;1.45;;;;;;;17.28;58.68;101407.03;7397028;19;20507;-68
2022/07/13 04:30:14;;;;;;;4.43;1.73;;;;;;;17.29;58.65;101407.91;7395556;19;20014;-68
2022/07/13 04:32:43;;;;;;;2.53;1.73;;;;;;;17.29;58.64;101407.91;7397636;19;20022;-69
2022/07/13 04:35:11;;;;;;;3.20;1.90;;;;;;;17.30;58.98;101401.66;7397604;19;20426;-68
2022/07/13 04:37:40;;;;;;;2.00;1.80;;;;;;;17.31;59.14;101406.06;7395230;19;20011;-69
2022/07/13 04:40:09;;;;;;;3.17;1.80;;;;;;;17.32;58.70;101413.94;7394994;19;20017;-69
2022/07/13 04:42:38;;;;;;;2.50;1.98;;;;;;;17.30;58.68;101410.50;7395396;19;20026;-69
2022/07/13 04:45:08;;;;;;;2.15;1.80;;;;;;;17.35;58.92;101419.16;7395339;19;20010;-69
2022/07/13 04:47:39;;;;;;;2.05;1.70;;;;;;;17.37;58.83;101422.59;7397648;19;20035;-68
2022/07/13 04:50:09;;;;;;;3.85;1.60;;;;;;;17.39;58.79;101418.09;7394850;19;20398;-69
2022/07/13 04:52:37;;;;;;;1.55;1.45;;;;;;;17.45;58.97;101421.41;7394726;19;20027;-69
2022/07/13 04:55:07;;;;;;;2.50;1.45;;;;;;;17.49;59.06;101415.06;7395156;19;20031;-69
2022/07/13 04:57:35;;;;;;;3.33;2.15;;;;;;;17.53;58.77;101420.19;7395041;19;20394;-68
2022/07/13 05:00:05;;;;;;;3.15;1.80;;;;;;;17.58;58.83;101420.00;7395337;19;20035;-69
2022/07/13 05:02:34;;;;;;;2.60;1.95;;;;;;;17.64;59.02;101418.88;7396191;19;20014;-69
2022/07/13 05:05:06;;;;;;;2.97;1.70;;;;;;;17.69;58.65;101411.59;7396484;19;20411;-69
2022/07/13 05:07:34;;;;;;;2.75;1.90;;;;;;;17.74;58.71;101413.16;7394015;19;20017;-68
2022/07/13 05:10:03;;;;;;;2.60;1.90;;;;;;;17.79;58.81;101410.28;7394502;19;20022;-68
2022/07/13 05:12:32;;;;;;;3.90;1.85;;;;;;;17.82;58.85;101404.88;7394178;19;20498;-68
2022/07/13 05:15:01;;;;;;;2.85;1.73;;;;;;;17.86;58.37;101400.31;7396443;19;20025;-68
2022/07/13 05:17:30;;;;;;;3.83;2.03;;;;;;;17.90;58.59;101408.06;7394860;19;20031;-68
2022/07/13 05:19:58;;;;;;;2.80;1.80;;;;;;;17.94;58.38;101406.16;7394127;19;20022;-68
2022/07/13 05:22:30;;;;;;;2.50;1.90;;;;;;;17.99;58.29;101403.34;7395949;19;20026;-68
2022/07/13 05:24:59;;;;;;;2.60;1.50;;;;;;;18.02;58.63;101403.19;7395929;19;20014;-68
2022/07/13 05:27:28;;;;;;;1.98;1.67;;;;;;;18.09;58.32;101409.13;7395475;19;20485;-72
2022/07/13 05:29:56;;;;;;;3.88;1.85;;;;;;;18.14;58.61;101409.78;7395029;19;20022;-68
2022/07/13 05:32:25;;;;;;;3.28;2.10;;;;;;;18.18;58.08;101403.41;7393539;19;20018;-68
2022/07/13 05:34:53;;;;;;;3.42;1.98;;;;;;;18.24;58.27;101403.13;7394035;19;20014;-68
2022/07/13 05:37:22;;;;;;;3.63;2.03;;;;;;;18.29;58.22;101392.31;7393283;19;20014;-68
2022/07/13 05:39:53;;;;;;;2.17;1.70;;;;;;;18.33;58.26;101386.78;7394336;19;20112;-68
2022/07/13 05:42:21;;;;;;;4.78;2.15;;;;;;;18.39;58.17;101393.63;7393090;19;20031;-68
2022/07/13 05:44:50;;;;;;;3.63;1.73;;;;;;;18.46;58.06;101387.09;7394804;19;20364;-67
2022/07/13 05:47:18;;;;;;;2.17;1.88;;;;;;;18.51;58.32;101395.75;7393697;19;20035;-68
2022/07/13 05:49:47;;;;;;;3.47;1.63;;;;;;;18.59;58.20;101390.09;7393701;19;20018;-68
2022/07/13 05:52:16;;;;;;;2.40;1.80;;;;;;;18.66;57.92;101390.66;7393762;19;20019;-68
2022/07/13 05:54:44;;;;;;;2.60;1.80;;;;;;;18.73;57.87;101387.66;7394799;19;20486;-68
2022/07/13 05:57:15;;;;;;;4.22;1.90;;;;;;;18.81;57.94;101387.31;7394816;19;20023;-68
2022/07/13 05:59:44;;;;;;;2.10;1.85;;;;;;;18.88;57.52;101382.59;7393178;19;20035;-68
2022/07/13 06:02:13;;;;;;;2.17;1.85;;;;;;;18.94;57.38;101392.09;7394233;19;20019;-72
2022/07/13 06:04:41;;;;;;;3.95;2.00;;;;;;;19.03;57.73;101394.31;7394617;19;20026;-68
2022/07/13 06:07:10;;;;;;;4.13;2.00;;;;;;;19.11;57.82;101385.97;7394479;19;20022;-69
2022/07/13 06:09:38;;;;;;;2.42;1.80;;;;;;;19.20;57.52;101382.88;7397724;19;20376;-68
2022/07/13 06:12:07;;;;;;;4.68;2.10;;;;;;;19.31;57.63;101383.22;7398627;19;20477;-68
2022/07/13 06:14:38;;;;;;;3.40;1.58;;;;;;;19.41;57.29;101383.66;7398815;19;20011;-68
2022/07/13 06:17:07;;;;;;;3.35;2.13;;;;;;;19.51;56.97;101384.91;7398469;19;20038;-68
2022/07/13 06:19:36;;;;;;;2.75;2.10;;;;;;;19.62;57.39;101379.03;7400899;19;20035;-67
2022/07/13 06:22:04;;;;;;;6.05;2.75;;;;;;;19.73;56.91;101377.63;7401777;19;20019;-68
2022/07/13 06:24:33;;;;;;;4.35;2.10;;;;;;;19.83;57.10;101371.81;7398993;19;20035;-68
2022/07/13 06:27:01;;;;;;;2.45;1.90;;;;;;;19.94;57.05;101371.28;7401101;19;20014;-68
2022/07/13 06:29:30;;;;;;;5.90;4.60;;;;;;;20.05;56.69;101365.38;7400487;19;20039;-68
2022/07/13 06:32:01;;;;;;;4.70;2.17;;;;;;;20.16;56.65;101371.03;7401854;19;20026;-68
2022/07/13 06:34:29;;;;;;;7.28;4.30;;;;;;;20.27;56.56;101370.47;7398893;19;20022;-68
2022/07/13 06:36:58;;;;;;;3.33;2.13;;;;;;;20.40;56.04;101369.81;7397835;19;20481;-68
2022/07/13 06:39:26;;;;;;;3.40;2.15;;;;;;;20.52;55.73;101366.47;7400178;19;20519;-68
2022/07/13 06:41:55;;;;;;;2.47;1.65;;;;;;;20.61;55.59;101366.00;7398303;19;20100;-67
2022/07/13 06:44:24;;;;;;;6.45;3.40;;;;;;;20.72;55.28;101367.25;7400171;19;20015;-68
2022/07/13 06:46:52;;;;;;;1.85;1.58;;;;;;;20.83;54.63;101375.53;7401342;19;20544;-67
2022/07/13 06:49:23;;;;;;;2.10;1.88;;;;;;;20.93;54.10;101374.06;7397989;19;20028;-66
2022/07/13 06:51:52;;;;;;;3.53;1.40;;;;;;;21.03;54.43;101373.53;7400563;19;20015;-65
2022/07/13 06:54:20;;;;;;;2.85;1.13;;;;;;;21.11;53.79;101371.31;7397734;19;20015;-66
2022/07/13 06:56:55;;;;;;;1.58;1.40;;;;;;;21.21;53.64;101361.00;7400645;19;20368;-66
2022/07/13 06:59:24;;;;;;;3.83;1.92;;;;;;;21.30;53.61;101366.66;7399881;19;20035;-66
2022/07/13 07:01:52;;;;;;;2.25;1.48;;;;;;;21.42;53.25;101364.22;7397384;19;20023;-66
2022/07/13 07:04:24;;;;;;;2.03;1.65;;;;;;;21.52;53.02;101364.56;7397947;19;20031;-66
2022/07/13 07:06:52;;;;;;;2.30;1.70;;;;;;;21.60;53.33;101354.34;7397526;19;20485;-66
2022/07/13 07:09:20;;;;;;;2.60;1.45;;;;;;;;;;7397584;19;20022;-66
2022/07/13 07:11:49;;;;;;;3.20;1.10;;;;;;;21.86;52.37;101351.91;7397977;19;20026;-66
2022/07/13 07:14:17;;;;;;;3.17;1.50;;;;;;;21.98;52.16;101348.50;7397106;19;20011;-66
2022/07/13 07:16:46;;;;;;;3.75;1.50;;;;;;;22.09;51.57;101342.50;7396273;19;20514;-66
2022/07/13 07:19:15;;;;;;;2.20;1.20;;;;;;;22.23;50.76;101347.00;7397028;19;20014;-66
2022/07/13 07:21:46;;;;;;;2.33;1.00;;;;;;;22.34;49.77;101335.66;7396376;19;20475;-66
2022/07/13 07:24:15;;;;;;;3.40;1.25;;;;;;;22.44;48.96;101329.69;7397172;19;20022;-65
2022/07/13 07:26:43;;;;;;;3.20;1.50;;;;;;;22.56;49.14;101324.53;7397105;19;20018;-66
2022/07/13 07:29:12;;;;;;;2.65;0.98;;;;;;;22.68;48.26;101323.72;7399257;19;20082;-66
2022/07/13 07:31:40;;;;;;;1.65;1.10;;;;;;;22.80;47.98;101322.09;7396788;19;20090;-66
2022/07/13 07:34:09;;;;;;;5.38;1.35;;;;;;;22.91;47.06;101321.38;7399140;19;20015;-66
2022/07/13 07:36:38;;;;;;;2.05;1.00;;;;;;;23.01;46.89;101319.81;7395486;19;20014;-67
2022/07/13 07:39:10;;;;;;;2.33;1.15;;;;;;;23.13;46.51;101312.81;7396383;19;20011;-66
2022/07/13 07:41:45;;;;;;;1.63;1.08;;;;;;;23.23;45.83;101313.13;7396803;19;20123;-67
2022/07/13 07:44:14;;;;;;;3.40;1.13;;;;;;;23.32;45.91;101304.47;7395668;19;20023;-67
2022/07/13 07:46:43;;;;;;;2.15;1.25;;;;;;;23.43;45.92;101312.63;7398158;19;20485;-67
2022/07/13 07:49:11;;;;;;;2.55;1.40;;;;;;;23.54;45.71;101306.56;7398563;19;20018;-67
2022/07/13 07:51:40;;;;;;;3.25;1.30;;;;;;;23.66;45.81;101312.06;7398655;19;20018;-67
2022/07/13 07:54:11;;;;;;;3.35;1.30;;;;;;;23.75;45.06;101309.56;7396734;19;20022;-67
2022/07/13 07:56:39;;;;;;;6.00;1.40;;;;;;;23.85;45.36;101317.84;7397013;19;20473;-67
2022/07/13 07:59:08;;;;;;;4.35;1.58;;;;;;;23.95;44.76;101325.25;7398090;19;20513;-67
2022/07/13 08:01:36;;;;;;;4.05;1.55;;;;;;;24.02;44.49;101314.03;7395990;19;20019;-67
2022/07/13 08:04:05;;;;;;;3.10;1.17;;;;;;;24.10;44.42;101309.94;7397611;19;20010;-67
2022/07/13 08:06:34;;;;;;;2.15;1.50;;;;;;;24.18;44.43;101315.63;7396091;19;20014;-68
2022/07/13 08:09:02;;;;;;;2.78;1.45;;;;;;;24.21;44.13;101316.28;7396029;19;20011;-68
2022/07/13 08:11:33;;;;;;;5.05;1.63;;;;;;;24.28;43.72;101314.00;7395820;19;20091;-67
2022/07/13 08:14:02;;;;;;;2.50;1.27;;;;;;;24.32;43.84;101310.16;7396464;19;20481;-67
2022/07/13 08:16:37;;;;;;;1.77;1.38;;;;;;;24.39;44.07;101306.06;7395580;19;20022;-67
2022/07/13 08:19:05;;;;;;;6.68;1.60;;;;;;;24.48;43.75;101299.19;7397400;19;20014;-66
2022/07/13 08:21:34;;;;;;;2.00;1.58;;;;;;;24.59;43.19;101297.56;7395181;19;20098;-67
2022/07/13 08:24:02;;;;;;;2.80;1.48;;;;;;;24.65;42.97;101281.88;7395122;19;20022;-66
2022/07/13 08:26:34;;;;;;;3.47;1.65;;;;;;;24.72;42.73;101293.06;7394902;19;20028;-67
2022/07/13 08:29:03;;;;;;;1.60;1.50;;;;;;;24.76;42.43;101293.66;7398038;19;20018;-68
2022/07/13 08:31:31;;;;;;;2.30;2.05;;;;;;;24.81;42.39;101288.84;7393133;19;20019;-67
2022/07/13 08:39:22;;;;;;;1.98;1.52;;;;;;;25.04;41.99;101281.75;7397716;19;20013;-67
2022/07/13 08:41:54;;;;;;;2.80;2.00;;;;;;;25.14;41.85;101271.19;7395969;19;20039;-67
2022/07/13 08:44:22;;;;;;;3.00;1.55;;;;;;;25.22;41.79;101271.44;7395061;19;20579;-67
2022/07/13 08:46:52;;;;;;;3.63;1.70;;;;;;;25.34;41.25;101272.38;7394869;19;20471;-67
2022/07/13 08:49:22;;;;;;;3.80;2.20;;;;;;;25.47;40.87;101262.41;7394598;19;20455;-67
2022/07/13 08:51:52;;;;;;;7.03;3.45;;;;;;;25.60;40.73;101262.31;7398857;19;20035;-66
2022/07/13 08:54:21;;;;;;;5.97;2.35;;;;;;;25.75;40.46;101259.44;7394623;19;20466;-66
2022/07/13 08:56:49;;;;;;;4.47;1.80;;;;;;;25.88;40.76;101259.31;7396093;19;20485;-66
2022/07/13 08:59:21;;;;;;;1.83;1.67;;;;;;;25.99;40.42;101260.16;7396119;19;20014;-67
2022/07/13 09:01:49;;;;;;;2.28;1.30;;;;;;;26.10;39.44;101258.50;7395249;19;20506;-67
2022/07/13 09:04:18;;;;;;;2.95;1.80;;;;;;;26.14;39.21;101258.13;7396467;19;20082;-67
2022/07/13 09:06:48;;;;;;;1.90;1.80;;;;;;;26.20;39.59;101253.22;7396423;19;20022;-67
2022/07/13 09:09:35;;;;;;;3.50;2.20;;;;;;;26.26;39.17;101263.50;7395711;19;20037;-67
2022/07/13 09:12:17;;;;;;;3.33;1.45;;;;;;;26.27;38.71;101257.16;7396329;19;20050;-66
2022/07/13 09:14:54;;;;;;;3.72;1.60;;;;;;;26.33;39.22;101256.66;7395374;19;20018;-67
2022/07/13 09:17:34;;;;;;;3.22;1.85;;;;;;;26.36;38.79;101261.78;7396477;19;20481;-66
2022/07/13 09:20:08;;;;;;;4.75;2.00;;;;;;;26.41;39.53;101253.34;7394066;19;20027;-66
2022/07/13 09:22:44;;;;;;;1.83;1.60;;;;;;;26.44;39.08;101259.34;7393826;19;20017;-66
2022/07/13 09:25:14;;;;;;;3.35;2.38;;;;;;;26.43;38.89;101249.56;7394615;19;20387;-67
2022/07/13 09:27:50;;;;;;;2.33;1.90;;;;;;;26.43;38.36;101249.56;7394285;19;20485;-68
2022/07/13 09:30:28;;;;;;;4.47;1.90;;;;;;;26.46;38.64;101238.56;7395712;19;20014;-67
2022/07/13 09:32:59;;;;;;;2.58;1.73;;;;;;;26.52;38.46;101244.41;7395312;19;20502;-66
2022/07/13 09:35:46;;;;;;;3.38;1.67;;;;;;;26.61;38.57;101239.09;7393148;19;20011;-66
2022/07/13 09:38:31;;;;;;;1.60;1.50;;;;;;;26.74;38.15;101244.41;7393200;19;20006;-67
2022/07/13 09:41:18;;;;;;;3.72;1.52;;;;;;;26.85;37.77;101240.78;7393324;19;20026;-67
2022/07/13 09:46:58;;;;;;;6.00;1.85;;;;;;;27.01;37.34;101234.13;7396283;19;20366;-66
2022/07/13 09:49:39;;;;;;;3.47;1.38;;;;;;;27.06;37.02;101232.75;7394468;19;20021;-67
2022/07/13 09:52:09;;;;;;;2.30;1.10;;;;;;;27.11;37.96;101229.69;7397065;19;20399;-66
2022/07/13 09:54:39;;;;;;;1.42;1.00;;;;;;;27.18;37.38;101232.72;7392796;19;20489;-66
2022/07/13 09:57:11;;;;;;;1.60;0.90;;;;;;;27.23;37.61;101227.78;7394877;19;20031;-66
2022/07/13 09:59:40;;;;;;;3.92;0.90;;;;;;;27.23;37.33;101235.88;7393799;19;20338;-66
2022/07/13 10:02:12;;;;;;;2.17;1.20;;;;;;;27.24;36.67;101221.41;7393788;19;20026;-68
2022/07/13 10:04:42;;;;;;;2.13;0.88;;;;;;;27.28;36.73;101221.00;7392175;19;20486;-67
2022/07/13 10:07:12;;;;;;;1.55;0.80;;;;;;;27.37;36.62;101215.81;7393540;19;20010;-66
2022/07/13 10:09:41;;;;;;;3.17;1.00;;;;;;;27.45;36.45;101216.06;7392039;19;20025;-66
2022/07/13 10:12:10;;;;;;;2.83;0.60;;;;;;;27.54;35.74;101217.09;7392043;19;20014;-66
2022/07/13 10:14:40;;;;;;;4.00;0.85;;;;;;;27.58;34.06;101224.78;7393720;19;20023;-66
2022/07/13 10:17:14;;;;;;;0.80;0.70;;;;;;;27.58;34.57;101219.38;7393516;19;20011;-66
2022/07/13 10:19:45;;;;;;;0.95;0.60;;;;;;;27.61;34.11;101219.13;7393669;19;20015;-66
2022/07/13 10:22:20;;;;;;;1.27;0.80;;;;;;;27.62;33.39;101214.59;7392524;19;20014;-66
2022/07/13 10:24:58;;;;;;;2.97;0.70;;;;;;;27.66;32.80;101220.56;7393756;19;20034;-67
2022/07/13 10:27:28;;;;;;;0.70;0.70;;;;;;;27.67;32.57;101216.91;7393658;19;20022;-67
2022/07/13 10:29:59;;;;;;;3.08;0.80;;;;;;;27.70;31.69;101212.09;7392690;19;20411;-67
2022/07/13 10:32:31;;;;;;;0.65;0.60;;;;;;;27.76;31.73;101218.78;7394372;19;20500;-66
2022/07/13 10:35:02;;;;;;;1.10;0.80;;;;;;;27.83;32.08;101205.59;7394244;19;20043;-66
2022/07/13 10:38:14;;;;;;;2.90;0.70;;;;;;;27.92;30.06;101191.31;7391360;19;20027;-67
2022/07/13 10:40:43;;;;;;;2.90;0.65;;;;;;;28.03;30.55;101209.22;7391933;19;20022;-66
2022/07/13 10:43:12;;;;;;;3.80;0.70;;;;;;;28.07;30.62;101197.25;7391711;19;20018;-66
2022/07/13 10:45:48;;;;;;;1.80;0.70;;;;;;;28.07;30.43;101203.47;7393667;19;20074;-66
2022/07/13 10:48:49;;;;;;;2.17;0.80;;;;;;;28.06;31.54;101204.47;7393891;19;20082;-67
2022/07/13 10:51:22;;;;;;;1.35;0.80;;;;;;;28.12;31.74;101200.38;7391059;19;20018;-67
2022/07/13 10:54:10;;;;;;;1.83;1.15;;;;;;;28.18;32.50;101209.75;7392086;19;20022;-66
2022/07/13 10:56:39;;;;;;;2.17;0.80;;;;;;;28.16;32.38;101200.94;7397618;19;20018;-66
2022/07/13 10:59:08;;;;;;;2.25;0.80;;;;;;;28.17;32.26;101198.13;7398219;19;20022;-66
2022/07/13 11:01:49;;;;;;;2.17;0.80;;;;;;;28.19;32.37;101201.50;7397759;19;20018;-67
2022/07/13 11:04:21;;;;;;;2.50;0.73;;;;;;;28.23;32.12;101197.56;7397512;19;20019;-67
2022/07/13 11:07:09;;;;;;;0.75;0.60;;;;;;;28.25;31.52;101184.78;7400070;19;20419;-67
2022/07/13 11:09:39;;;;;;;1.88;0.90;;;;;;;28.32;32.29;101187.78;7399748;19;20023;-67
2022/07/13 11:12:23;;;;;;;5.82;1.30;;;;;;;28.46;32.00;101189.25;7398530;19;20011;-66
2022/07/13 11:14:53;;;;;;;3.33;0.93;;;;;;;28.59;31.52;101187.09;7396461;19;20392;-66
2022/07/13 11:17:24;;;;;;;2.92;1.30;;;;;;;28.78;31.38;101177.34;7398498;19;20498;-65
2022/07/13 11:20:09;;;;;;;2.65;0.70;;;;;;;28.92;29.72;101174.19;7398783;19;20019;-66
2022/07/13 11:25:42;;;;;;;1.05;0.70;;;;;;;28.97;27.47;101178.34;7399463;19;20078;-65
2022/07/13 11:28:28;;;;;;;3.83;0.90;;;;;;;29.00;27.53;101173.47;7396240;19;20019;-66
2022/07/13 11:30:57;;;;;;;1.92;0.90;;;;;;;29.02;28.37;101176.06;7397269;19;20040;-66
2022/07/13 11:33:26;;;;;;;3.17;1.00;;;;;;;29.10;28.54;101173.47;7396520;19;20035;-66
2022/07/13 11:35:59;;;;;;;1.60;0.88;;;;;;;29.15;28.79;101167.66;7395943;19;20011;-66
2022/07/13 11:38:36;;;;;;;1.27;1.17;;;;;;;29.21;28.49;101153.56;7396399;19;20081;-66
2022/07/13 11:41:06;;;;;;;1.40;0.90;;;;;;;29.26;28.35;101176.44;7396075;19;20490;-66
2022/07/13 11:43:35;;;;;;;1.13;0.77;;;;;;;29.39;27.86;101159.09;7395718;19;20501;-67
2022/07/13 11:46:04;;;;;;;1.42;0.80;;;;;;;29.51;28.57;101171.44;7396100;19;20027;-66
2022/07/13 11:48:34;;;;;;;3.58;0.90;;;;;;;29.67;28.43;101153.72;7398021;19;20019;-67
2022/07/13 11:51:10;;;;;;;1.85;0.93;;;;;;;29.73;27.44;101153.97;7396295;19;20018;-67
2022/07/13 11:53:38;;;;;;;0.98;0.77;;;;;;;29.79;28.21;101144.44;7396710;19;20010;-67